sensor_id;sensor_type;location;lat;lon;timestamp;pressure;altitude;pressure_sealevel;temperature;humidity
6668;BME280;3370;47.712;9.082;2023-03-13T00:02:44;96760.00;;;7.72;86.98
6668;BME280;3370;47.712;9.082;2023-03-13T00:05:35;96753.03;;;7.75;87.17
6668;BME280;3370;47.712;9.082;2023-03-13T00:08:21;96758.72;;;7.83;85.45
6668;BME280;3370;47.712;9.082;2023-03-13T00:11:10;96765.63;;;7.81;86.35
6668;BME280;3370;47.712;9.082;2023-03-13T00:13:59;96754.31;;;7.87;86.42
6668;BME280;3370;47.712;9.082;2023-03-13T00:16:46;96751.09;;;7.82;85.73
6668;BME280;3370;47.712;9.082;2023-03-13T00:19:32;96745.78;;;7.86;86.47
6668;BME280;3370;47.712;9.082;2023-03-13T00:22:18;96737.31;;;7.84;84.74
6668;BME280;3370;47.712;9.082;2023-03-13T00:25:04;96739.88;;;8.06;83.04
6668;BME280;3370;47.712;9.082;2023-03-13T00:27:51;96742.38;;;8.08;83.32
6668;BME280;3370;47.712;9.082;2023-03-13T00:30:37;96729.28;;;7.94;83.43
6668;BME280;3370;47.712;9.082;2023-03-13T00:33:23;96728.78;;;8.06;83.45
6668;BME280;3370;47.712;9.082;2023-03-13T00:36:27;96744.63;;;7.94;83.37
6668;BME280;3370;47.712;9.082;2023-03-13T00:39:14;96746.31;;;7.95;83.55
6668;BME280;3370;47.712;9.082;2023-03-13T00:42:00;96749.34;;;8.04;81.99
6668;BME280;3370;47.712;9.082;2023-03-13T00:44:48;96741.28;;;8.36;80.28
6668;BME280;3370;47.712;9.082;2023-03-13T00:47:34;96735.50;;;8.31;80.67
6668;BME280;3370;47.712;9.082;2023-03-13T00:50:20;96738.34;;;8.23;81.21
6668;BME280;3370;47.712;9.082;2023-03-13T00:53:06;96739.25;;;8.44;79.47
6668;BME280;3370;47.712;9.082;2023-03-13T00:56:05;96723.13;;;8.40;79.46
6668;BME280;3370;47.712;9.082;2023-03-13T00:58:52;96729.47;;;8.32;80.58
6668;BME280;3370;47.712;9.082;2023-03-13T01:01:38;96725.44;;;8.26;80.31
6668;BME280;3370;47.712;9.082;2023-03-13T01:04:25;96729.22;;;8.38;79.59
6668;BME280;3370;47.712;9.082;2023-03-13T01:07:11;96728.19;;;8.21;80.68
6668;BME280;3370;47.712;9.082;2023-03-13T01:09:57;96723.78;;;8.25;79.99
6668;BME280;3370;47.712;9.082;2023-03-13T01:12:43;96734.31;;;8.17;80.30
6668;BME280;3370;47.712;9.082;2023-03-13T01:15:32;96732.72;;;8.15;80.39
6668;BME280;3370;47.712;9.082;2023-03-13T01:18:19;96725.09;;;8.13;80.73
6668;BME280;3370;47.712;9.082;2023-03-13T01:21:06;96728.69;;;8.09;81.22
6668;BME280;3370;47.712;9.082;2023-03-13T01:23:53;96727.91;;;8.07;81.19
6668;BME280;3370;47.712;9.082;2023-03-13T01:26:39;96735.75;;;8.02;81.61
6668;BME280;3370;47.712;9.082;2023-03-13T01:29:25;96728.09;;;8.02;81.42
6668;BME280;3370;47.712;9.082;2023-03-13T01:32:11;96727.16;;;8.05;81.52
6668;BME280;3370;47.712;9.082;2023-03-13T01:34:57;96731.41;;;8.04;82.03
6668;BME280;3370;47.712;9.082;2023-03-13T01:37:43;96715.34;;;8.01;82.30
6668;BME280;3370;47.712;9.082;2023-03-13T01:40:30;96722.31;;;7.97;82.63
6668;BME280;3370;47.712;9.082;2023-03-13T01:43:26;96714.78;;;7.94;82.97
6668;BME280;3370;47.712;9.082;2023-03-13T01:46:24;96716.91;;;8.05;82.02
6668;BME280;3370;47.712;9.082;2023-03-13T01:49:21;96713.69;;;8.00;82.20
6668;BME280;3370;47.712;9.082;2023-03-13T01:52:23;96712.72;;;8.02;82.00
6668;BME280;3370;47.712;9.082;2023-03-13T01:55:14;96701.75;;;7.99;82.26
6668;BME280;3370;47.712;9.082;2023-03-13T01:58:01;96701.75;;;7.99;81.97
6668;BME280;3370;47.712;9.082;2023-03-13T02:00:47;96694.69;;;8.05;81.64
6668;BME280;3370;47.712;9.082;2023-03-13T02:03:35;96691.16;;;8.08;81.60
6668;BME280;3370;47.712;9.082;2023-03-13T02:06:22;96692.56;;;8.15;81.01
6668;BME280;3370;47.712;9.082;2023-03-13T02:09:17;96688.59;;;8.08;81.27
6668;BME280;3370;47.712;9.082;2023-03-13T02:12:52;96681.88;;;8.05;81.68
6668;BME280;3370;47.712;9.082;2023-03-13T02:15:31;96678.56;;;8.03;82.10
6668;BME280;3370;47.712;9.082;2023-03-13T02:18:18;96679.97;;;8.11;81.46
6668;BME280;3370;47.712;9.082;2023-03-13T02:21:34;96672.56;;;8.03;82.72
6668;BME280;3370;47.712;9.082;2023-03-13T02:24:37;96677.06;;;7.98;83.45
6668;BME280;3370;47.712;9.082;2023-03-13T02:27:26;96665.31;;;7.92;83.51
6668;BME280;3370;47.712;9.082;2023-03-13T02:30:14;96670.00;;;7.82;84.32
6668;BME280;3370;47.712;9.082;2023-03-13T02:33:02;96664.00;;;7.83;83.53
6668;BME280;3370;47.712;9.082;2023-03-13T02:35:48;96660.28;;;7.91;83.12
6668;BME280;3370;47.712;9.082;2023-03-13T02:38:43;96659.75;;;7.82;83.59
6668;BME280;3370;47.712;9.082;2023-03-13T02:41:32;96654.63;;;7.82;84.01
6668;BME280;3370;47.712;9.082;2023-03-13T02:44:19;96648.75;;;7.80;83.61
6668;BME280;3370;47.712;9.082;2023-03-13T02:47:05;96638.25;;;7.86;83.64
6668;BME280;3370;47.712;9.082;2023-03-13T02:49:51;96639.16;;;7.85;83.04
6668;BME280;3370;47.712;9.082;2023-03-13T02:52:44;96632.00;;;7.94;82.52
6668;BME280;3370;47.712;9.082;2023-03-13T02:55:38;96628.28;;;8.01;83.00
6668;BME280;3370;47.712;9.082;2023-03-13T02:58:25;96617.91;;;8.04;81.96
6668;BME280;3370;47.712;9.082;2023-03-13T03:01:11;96614.59;;;8.02;82.43
6668;BME280;3370;47.712;9.082;2023-03-13T03:03:57;96613.69;;;8.03;82.11
6668;BME280;3370;47.712;9.082;2023-03-13T03:06:44;96619.34;;;8.11;80.99
6668;BME280;3370;47.712;9.082;2023-03-13T03:09:30;96615.19;;;8.09;80.31
6668;BME280;3370;47.712;9.082;2023-03-13T03:12:16;96619.06;;;8.17;79.96
6668;BME280;3370;47.712;9.082;2023-03-13T03:15:03;96614.91;;;8.15;80.03
6668;BME280;3370;47.712;9.082;2023-03-13T03:17:49;96614.22;;;8.11;80.03
6668;BME280;3370;47.712;9.082;2023-03-13T03:20:35;96617.53;;;8.13;79.79
6668;BME280;3370;47.712;9.082;2023-03-13T03:23:21;96615.88;;;8.12;80.36
6668;BME280;3370;47.712;9.082;2023-03-13T03:26:08;96613.50;;;8.07;80.09
6668;BME280;3370;47.712;9.082;2023-03-13T03:28:54;96621.38;;;8.03;80.46
6668;BME280;3370;47.712;9.082;2023-03-13T03:31:40;96611.38;;;7.97;80.94
6668;BME280;3370;47.712;9.082;2023-03-13T03:34:26;96613.19;;;7.95;81.05
6668;BME280;3370;47.712;9.082;2023-03-13T03:37:12;96612.41;;;7.93;81.26
6668;BME280;3370;47.712;9.082;2023-03-13T03:39:58;96604.84;;;7.90;81.86
6668;BME280;3370;47.712;9.082;2023-03-13T03:42:45;96600.88;;;8.03;80.99
6668;BME280;3370;47.712;9.082;2023-03-13T03:45:31;96596.03;;;7.97;80.89
6668;BME280;3370;47.712;9.082;2023-03-13T03:48:17;96593.41;;;7.98;80.73
6668;BME280;3370;47.712;9.082;2023-03-13T03:51:03;96602.03;;;7.96;80.06
6668;BME280;3370;47.712;9.082;2023-03-13T03:53:49;96590.78;;;8.00;80.37
6668;BME280;3370;47.712;9.082;2023-03-13T03:56:35;96591.78;;;7.96;80.52
6668;BME280;3370;47.712;9.082;2023-03-13T03:59:21;96588.88;;;8.05;79.42
6668;BME280;3370;47.712;9.082;2023-03-13T04:02:07;96591.63;;;8.00;79.76
6668;BME280;3370;47.712;9.082;2023-03-13T04:04:54;96590.91;;;7.97;80.67
6668;BME280;3370;47.712;9.082;2023-03-13T04:07:40;96588.47;;;7.94;81.01
6668;BME280;3370;47.712;9.082;2023-03-13T04:10:26;96572.63;;;7.85;81.58
6668;BME280;3370;47.712;9.082;2023-03-13T04:13:12;96581.19;;;7.84;81.88
6668;BME280;3370;47.712;9.082;2023-03-13T04:15:58;96577.78;;;7.84;81.65
6668;BME280;3370;47.712;9.082;2023-03-13T04:18:44;96584.50;;;8.07;78.86
6668;BME280;3370;47.712;9.082;2023-03-13T04:21:31;96576.91;;;8.24;77.33
6668;BME280;3370;47.712;9.082;2023-03-13T04:24:17;96570.22;;;8.22;77.01
6668;BME280;3370;47.712;9.082;2023-03-13T04:27:03;96568.47;;;8.22;77.11
6668;BME280;3370;47.712;9.082;2023-03-13T04:29:51;96565.44;;;8.14;77.28
6668;BME280;3370;47.712;9.082;2023-03-13T04:32:37;96572.72;;;8.23;76.85
6668;BME280;3370;47.712;9.082;2023-03-13T04:35:23;96564.69;;;8.31;76.46
6668;BME280;3370;47.712;9.082;2023-03-13T04:38:09;96572.19;;;8.36;76.07
6668;BME280;3370;47.712;9.082;2023-03-13T04:40:55;96566.91;;;8.39;75.90
6668;BME280;3370;47.712;9.082;2023-03-13T04:43:41;96555.91;;;8.37;76.31
6668;BME280;3370;47.712;9.082;2023-03-13T04:46:27;96555.25;;;8.32;76.57
6668;BME280;3370;47.712;9.082;2023-03-13T04:49:14;96556.66;;;8.39;76.78
6668;BME280;3370;47.712;9.082;2023-03-13T04:52:00;96549.72;;;8.41;76.68
6668;BME280;3370;47.712;9.082;2023-03-13T04:54:47;96553.88;;;8.45;76.62
6668;BME280;3370;47.712;9.082;2023-03-13T04:57:33;96548.88;;;8.42;77.30
6668;BME280;3370;47.712;9.082;2023-03-13T05:00:19;96551.84;;;8.52;76.80
6668;BME280;3370;47.712;9.082;2023-03-13T05:03:05;96543.41;;;8.69;76.29
6668;BME280;3370;47.712;9.082;2023-03-13T05:05:51;96541.63;;;8.71;76.20
6668;BME280;3370;47.712;9.082;2023-03-13T05:08:37;96548.47;;;8.70;76.61
6668;BME280;3370;47.712;9.082;2023-03-13T05:11:24;96545.91;;;8.70;76.55
6668;BME280;3370;47.712;9.082;2023-03-13T05:14:10;96558.94;;;8.66;76.68
6668;BME280;3370;47.712;9.082;2023-03-13T05:16:56;96553.31;;;8.57;77.75
6668;BME280;3370;47.712;9.082;2023-03-13T05:19:42;96547.41;;;8.55;77.56
6668;BME280;3370;47.712;9.082;2023-03-13T05:22:28;96543.28;;;8.53;77.77
6668;BME280;3370;47.712;9.082;2023-03-13T05:25:15;96536.53;;;8.50;78.21
6668;BME280;3370;47.712;9.082;2023-03-13T05:28:01;96525.28;;;8.54;78.33
6668;BME280;3370;47.712;9.082;2023-03-13T05:30:47;96524.34;;;8.55;78.08
6668;BME280;3370;47.712;9.082;2023-03-13T05:33:33;96534.53;;;8.57;78.40
6668;BME280;3370;47.712;9.082;2023-03-13T05:36:19;96525.75;;;8.62;77.22
6668;BME280;3370;47.712;9.082;2023-03-13T05:39:05;96529.34;;;8.58;77.85
6668;BME280;3370;47.712;9.082;2023-03-13T05:41:51;96537.59;;;8.46;78.58
6668;BME280;3370;47.712;9.082;2023-03-13T05:44:37;96534.34;;;8.41;78.73
6668;BME280;3370;47.712;9.082;2023-03-13T05:47:23;96523.28;;;8.40;78.82
6668;BME280;3370;47.712;9.082;2023-03-13T05:50:10;96529.00;;;8.47;78.41
6668;BME280;3370;47.712;9.082;2023-03-13T05:52:56;96527.50;;;8.43;78.65
6668;BME280;3370;47.712;9.082;2023-03-13T05:55:42;96530.94;;;8.42;78.51
6668;BME280;3370;47.712;9.082;2023-03-13T05:58:28;96528.84;;;8.50;77.70
6668;BME280;3370;47.712;9.082;2023-03-13T06:01:14;96532.03;;;8.36;78.29
6668;BME280;3370;47.712;9.082;2023-03-13T06:04:00;96531.09;;;8.37;78.05
6668;BME280;3370;47.712;9.082;2023-03-13T06:06:46;96536.06;;;8.42;77.94
6668;BME280;3370;47.712;9.082;2023-03-13T06:09:32;96537.22;;;8.35;78.30
6668;BME280;3370;47.712;9.082;2023-03-13T06:12:18;96537.09;;;8.38;77.92
6668;BME280;3370;47.712;9.082;2023-03-13T06:15:05;96534.31;;;8.42;77.56
6668;BME280;3370;47.712;9.082;2023-03-13T06:17:53;96525.69;;;8.45;77.66
6668;BME280;3370;47.712;9.082;2023-03-13T06:20:39;96508.44;;;8.49;76.84
6668;BME280;3370;47.712;9.082;2023-03-13T06:23:25;96514.78;;;8.59;76.24
6668;BME280;3370;47.712;9.082;2023-03-13T06:26:11;96520.41;;;8.67;76.82
6668;BME280;3370;47.712;9.082;2023-03-13T06:28:58;96526.25;;;8.71;75.92
6668;BME280;3370;47.712;9.082;2023-03-13T06:31:44;96517.50;;;8.75;76.54
6668;BME280;3370;47.712;9.082;2023-03-13T06:34:30;96517.38;;;8.78;76.35
6668;BME280;3370;47.712;9.082;2023-03-13T06:37:16;96531.22;;;8.74;76.17
6668;BME280;3370;47.712;9.082;2023-03-13T06:40:02;96526.13;;;8.91;76.23
6668;BME280;3370;47.712;9.082;2023-03-13T06:42:49;96513.63;;;8.85;77.73
6668;BME280;3370;47.712;9.082;2023-03-13T06:45:35;96518.06;;;8.81;77.91
6668;BME280;3370;47.712;9.082;2023-03-13T06:48:22;96528.50;;;8.77;78.60
6668;BME280;3370;47.712;9.082;2023-03-13T06:51:17;96535.94;;;8.83;78.37
6668;BME280;3370;47.712;9.082;2023-03-13T06:54:03;96533.38;;;8.83;77.18
6668;BME280;3370;47.712;9.082;2023-03-13T06:56:50;96532.44;;;8.84;78.10
6668;BME280;3370;47.712;9.082;2023-03-13T06:59:36;96525.06;;;8.95;77.52
6668;BME280;3370;47.712;9.082;2023-03-13T07:02:22;96520.94;;;8.93;76.80
6668;BME280;3370;47.712;9.082;2023-03-13T07:05:08;96515.31;;;9.04;76.99
6668;BME280;3370;47.712;9.082;2023-03-13T07:07:54;96508.16;;;9.10;76.92
6668;BME280;3370;47.712;9.082;2023-03-13T07:10:42;96488.63;;;9.25;75.93
6668;BME280;3370;47.712;9.082;2023-03-13T07:13:28;96494.38;;;9.30;76.27
6668;BME280;3370;47.712;9.082;2023-03-13T07:16:14;96492.00;;;9.26;75.75
6668;BME280;3370;47.712;9.082;2023-03-13T07:19:01;96483.63;;;9.22;76.47
6668;BME280;3370;47.712;9.082;2023-03-13T07:21:47;96485.25;;;9.25;76.84
6668;BME280;3370;47.712;9.082;2023-03-13T07:24:34;96486.59;;;9.32;75.39
6668;BME280;3370;47.712;9.082;2023-03-13T07:27:20;96486.34;;;9.36;74.59
6668;BME280;3370;47.712;9.082;2023-03-13T07:30:08;96494.97;;;9.53;74.28
6668;BME280;3370;47.712;9.082;2023-03-13T07:32:54;96482.94;;;9.53;75.52
6668;BME280;3370;47.712;9.082;2023-03-13T07:35:40;96496.78;;;9.68;74.97
6668;BME280;3370;47.712;9.082;2023-03-13T07:38:26;96495.56;;;9.75;75.46
6668;BME280;3370;47.712;9.082;2023-03-13T07:41:12;96485.56;;;9.87;74.93
6668;BME280;3370;47.712;9.082;2023-03-13T07:43:59;96491.59;;;9.86;74.93
6668;BME280;3370;47.712;9.082;2023-03-13T07:46:45;96487.66;;;9.96;74.27
6668;BME280;3370;47.712;9.082;2023-03-13T07:49:33;96494.44;;;9.97;74.24
6668;BME280;3370;47.712;9.082;2023-03-13T07:52:24;96496.00;;;10.17;74.06
6668;BME280;3370;47.712;9.082;2023-03-13T07:55:11;96506.19;;;10.18;73.88
6668;BME280;3370;47.712;9.082;2023-03-13T07:57:57;96503.53;;;10.20;73.09
6668;BME280;3370;47.712;9.082;2023-03-13T08:00:43;96503.31;;;10.25;72.65
6668;BME280;3370;47.712;9.082;2023-03-13T08:03:29;96491.19;;;10.27;73.47
6668;BME280;3370;47.712;9.082;2023-03-13T08:06:18;96490.75;;;10.36;72.10
6668;BME280;3370;47.712;9.082;2023-03-13T08:09:05;96498.44;;;10.36;71.42
6668;BME280;3370;47.712;9.082;2023-03-13T08:11:51;96503.44;;;10.39;72.50
6668;BME280;3370;47.712;9.082;2023-03-13T08:14:37;96502.19;;;10.46;71.92
6668;BME280;3370;47.712;9.082;2023-03-13T08:17:23;96499.38;;;10.51;72.30
6668;BME280;3370;47.712;9.082;2023-03-13T08:20:10;96492.75;;;10.63;72.14
6668;BME280;3370;47.712;9.082;2023-03-13T08:22:56;96481.88;;;10.58;72.50
6668;BME280;3370;47.712;9.082;2023-03-13T08:25:42;96480.13;;;10.58;72.69
6668;BME280;3370;47.712;9.082;2023-03-13T08:28:28;96482.78;;;10.57;73.07
6668;BME280;3370;47.712;9.082;2023-03-13T08:31:24;96486.28;;;10.55;74.20
6668;BME280;3370;47.712;9.082;2023-03-13T08:34:15;96492.19;;;10.73;73.88
6668;BME280;3370;47.712;9.082;2023-03-13T08:37:01;96479.47;;;10.86;73.01
6668;BME280;3370;47.712;9.082;2023-03-13T08:39:47;96478.34;;;11.22;72.54
6668;BME280;3370;47.712;9.082;2023-03-13T08:42:36;96479.53;;;11.31;71.56
6668;BME280;3370;47.712;9.082;2023-03-13T08:45:22;96484.28;;;11.53;71.34
6668;BME280;3370;47.712;9.082;2023-03-13T08:48:08;96484.28;;;11.53;71.11
6668;BME280;3370;47.712;9.082;2023-03-13T08:51:04;96480.44;;;11.60;71.87
6668;BME280;3370;47.712;9.082;2023-03-13T08:53:51;96468.66;;;11.70;70.41
6668;BME280;3370;47.712;9.082;2023-03-13T08:56:37;96467.94;;;11.68;70.52
6668;BME280;3370;47.712;9.082;2023-03-13T08:59:27;96463.53;;;11.70;71.69
6668;BME280;3370;47.712;9.082;2023-03-13T09:02:13;96476.78;;;11.64;69.95
6668;BME280;3370;47.712;9.082;2023-03-13T09:05:05;96472.06;;;11.71;71.24
6668;BME280;3370;47.712;9.082;2023-03-13T09:07:52;96455.06;;;11.68;70.53
6668;BME280;3370;47.712;9.082;2023-03-13T09:10:38;96448.81;;;11.73;72.20
6668;BME280;3370;47.712;9.082;2023-03-13T09:13:26;96449.75;;;11.86;71.46
6668;BME280;3370;47.712;9.082;2023-03-13T09:16:15;96442.22;;;12.12;69.92
6668;BME280;3370;47.712;9.082;2023-03-13T09:19:02;96427.63;;;12.39;67.92
6668;BME280;3370;47.712;9.082;2023-03-13T09:21:49;96436.69;;;12.59;66.94
6668;BME280;3370;47.712;9.082;2023-03-13T09:24:35;96442.50;;;12.63;65.10
6668;BME280;3370;47.712;9.082;2023-03-13T09:27:21;96437.09;;;12.80;64.37
6668;BME280;3370;47.712;9.082;2023-03-13T09:30:08;96430.28;;;12.79;63.95
6668;BME280;3370;47.712;9.082;2023-03-13T09:32:54;96420.03;;;13.05;64.10
6668;BME280;3370;47.712;9.082;2023-03-13T09:35:40;96426.75;;;13.08;63.98
6668;BME280;3370;47.712;9.082;2023-03-13T09:38:26;96418.84;;;13.23;63.28
6668;BME280;3370;47.712;9.082;2023-03-13T09:44:21;96400.91;;;13.35;62.23
6668;BME280;3370;47.712;9.082;2023-03-13T09:47:22;96395.19;;;13.30;61.50
6668;BME280;3370;47.712;9.082;2023-03-13T09:50:26;96400.91;;;13.35;61.24
6668;BME280;3370;47.712;9.082;2023-03-13T09:53:24;96386.75;;;13.53;61.52
6668;BME280;3370;47.712;9.082;2023-03-13T09:56:46;96388.69;;;13.88;60.75
6668;BME280;3370;47.712;9.082;2023-03-13T10:03:21;96378.16;;;13.91;61.11
6668;BME280;3370;47.712;9.082;2023-03-13T10:06:18;96367.03;;;13.78;60.45
6668;BME280;3370;47.712;9.082;2023-03-13T10:09:20;96361.63;;;13.81;61.18
6668;BME280;3370;47.712;9.082;2023-03-13T10:12:27;96354.69;;;13.94;60.02
6668;BME280;3370;47.712;9.082;2023-03-13T10:18:21;96343.56;;;14.18;59.55
6668;BME280;3370;47.712;9.082;2023-03-13T10:21:21;96342.13;;;14.38;58.76
6668;BME280;3370;47.712;9.082;2023-03-13T10:24:49;96332.91;;;14.47;58.46
6668;BME280;3370;47.712;9.082;2023-03-13T10:27:48;96336.09;;;14.50;58.51
6668;BME280;3370;47.712;9.082;2023-03-13T10:30:36;96333.41;;;14.76;57.83
6668;BME280;3370;47.712;9.082;2023-03-13T10:33:27;96333.81;;;14.94;57.25
6668;BME280;3370;47.712;9.082;2023-03-13T10:36:14;96327.47;;;15.21;57.86
6668;BME280;3370;47.712;9.082;2023-03-13T10:39:00;96321.97;;;15.37;56.49
6668;BME280;3370;47.712;9.082;2023-03-13T10:42:08;96321.97;;;15.48;58.35
6668;BME280;3370;47.712;9.082;2023-03-13T10:44:59;96312.91;;;15.31;56.79
6668;BME280;3370;47.712;9.082;2023-03-13T10:47:59;96304.09;;;15.45;55.25
6668;BME280;3370;47.712;9.082;2023-03-13T10:50:48;96308.06;;;15.26;53.95
6668;BME280;3370;47.712;9.082;2023-03-13T10:53:36;96292.41;;;15.28;55.11
6668;BME280;3370;47.712;9.082;2023-03-13T10:56:28;96292.44;;;15.50;56.46
6668;BME280;3370;47.712;9.082;2023-03-13T10:59:24;96279.13;;;15.78;55.54
6668;BME280;3370;47.712;9.082;2023-03-13T11:02:32;96269.94;;;15.85;54.66
6668;BME280;3370;47.712;9.082;2023-03-13T11:08:35;96261.97;;;16.41;53.90
6668;BME280;3370;47.712;9.082;2023-03-13T11:11:22;96243.41;;;16.25;52.31
6668;BME280;3370;47.712;9.082;2023-03-13T11:14:16;96246.38;;;16.20;51.56
6668;BME280;3370;47.712;9.082;2023-03-13T11:17:44;96233.63;;;16.28;51.49
6668;BME280;3370;47.712;9.082;2023-03-13T11:20:39;96224.63;;;16.86;51.65
6668;BME280;3370;47.712;9.082;2023-03-13T11:23:38;96220.63;;;17.43;47.96
6668;BME280;3370;47.712;9.082;2023-03-13T11:26:33;96217.53;;;17.59;49.20
6668;BME280;3370;47.712;9.082;2023-03-13T11:29:57;96205.72;;;17.86;47.21
6668;BME280;3370;47.712;9.082;2023-03-13T11:33:02;96204.75;;;18.16;48.16
6668;BME280;3370;47.712;9.082;2023-03-13T11:43:01;96200.94;;;18.20;46.73
6668;BME280;3370;47.712;9.082;2023-03-13T11:46:13;96188.06;;;17.90;47.66
6668;BME280;3370;47.712;9.082;2023-03-13T11:49:15;96192.69;;;18.45;47.08
6668;BME280;3370;47.712;9.082;2023-03-13T11:55:37;96172.47;;;18.95;47.50
6668;BME280;3370;47.712;9.082;2023-03-13T11:58:33;96169.41;;;19.10;48.59
6668;BME280;3370;47.712;9.082;2023-03-13T12:01:34;96162.63;;;19.72;47.55
6668;BME280;3370;47.712;9.082;2023-03-13T12:04:25;96160.81;;;19.27;45.71
6668;BME280;3370;47.712;9.082;2023-03-13T12:10:29;96147.88;;;19.99;45.44
6668;BME280;3370;47.712;9.082;2023-03-13T12:13:34;96121.59;;;19.92;46.67
6668;BME280;3370;47.712;9.082;2023-03-13T12:16:36;96117.84;;;20.13;45.79
6668;BME280;3370;47.712;9.082;2023-03-13T12:19:53;96119.09;;;20.79;44.52
6668;BME280;3370;47.712;9.082;2023-03-13T12:23:02;96102.59;;;20.71;45.11
6668;BME280;3370;47.712;9.082;2023-03-13T12:26:03;96092.50;;;21.18;43.64
6668;BME280;3370;47.712;9.082;2023-03-13T12:29:16;96085.81;;;20.55;43.64
6668;BME280;3370;47.712;9.082;2023-03-13T12:35:29;96067.84;;;21.29;42.20
6668;BME280;3370;47.712;9.082;2023-03-13T12:38:36;96055.19;;;21.08;43.32
6668;BME280;3370;47.712;9.082;2023-03-13T12:41:43;96033.69;;;20.72;42.77
6668;BME280;3370;47.712;9.082;2023-03-13T12:44:32;96049.19;;;20.65;43.65
6668;BME280;3370;47.712;9.082;2023-03-13T12:47:33;96034.72;;;21.79;41.25
6668;BME280;3370;47.712;9.082;2023-03-13T12:50:46;96022.09;;;22.40;41.27
6668;BME280;3370;47.712;9.082;2023-03-13T12:57:15;96000.69;;;21.95;40.71
6668;BME280;3370;47.712;9.082;2023-03-13T13:00:22;95985.47;;;22.71;40.38
6668;BME280;3370;47.712;9.082;2023-03-13T13:03:38;95984.50;;;24.11;38.64
6668;BME280;3370;47.712;9.082;2023-03-13T13:06:27;95968.75;;;23.96;36.19
6668;BME280;3370;47.712;9.082;2023-03-13T13:09:35;95960.41;;;24.07;35.89
6668;BME280;3370;47.712;9.082;2023-03-13T13:12:23;95958.84;;;22.91;37.52
6668;BME280;3370;47.712;9.082;2023-03-13T13:15:25;95949.81;;;23.25;38.45
6668;BME280;3370;47.712;9.082;2023-03-13T13:18:29;95943.56;;;23.26;38.05
6668;BME280;3370;47.712;9.082;2023-03-13T13:21:22;95921.03;;;23.92;37.94
6668;BME280;3370;47.712;9.082;2023-03-13T13:24:50;95921.38;;;23.13;38.30
6668;BME280;3370;47.712;9.082;2023-03-13T13:36:24;95916.03;;;21.14;41.35
6668;BME280;3370;47.712;9.082;2023-03-13T13:39:36;95909.38;;;20.53;41.63
6668;BME280;3370;47.712;9.082;2023-03-13T13:48:28;95877.25;;;20.18;43.26
6668;BME280;3370;47.712;9.082;2023-03-13T13:51:19;95870.94;;;20.71;44.28
6668;BME280;3370;47.712;9.082;2023-03-13T13:57:11;95861.47;;;20.95;41.79
6668;BME280;3370;47.712;9.082;2023-03-13T14:00:21;95845.09;;;21.34;41.95
6668;BME280;3370;47.712;9.082;2023-03-13T14:03:24;95835.59;;;21.74;41.43
6668;BME280;3370;47.712;9.082;2023-03-13T14:06:26;95832.16;;;21.73;40.13
6668;BME280;3370;47.712;9.082;2023-03-13T14:12:44;95821.56;;;21.34;41.58
6668;BME280;3370;47.712;9.082;2023-03-13T14:15:34;95799.84;;;21.50;40.05
6668;BME280;3370;47.712;9.082;2023-03-13T14:18:27;95801.28;;;21.69;40.34
6668;BME280;3370;47.712;9.082;2023-03-13T14:21:14;95792.94;;;21.65;38.59
6668;BME280;3370;47.712;9.082;2023-03-13T14:24:13;95794.34;;;20.95;39.15
6668;BME280;3370;47.712;9.082;2023-03-13T14:27:00;95795.16;;;20.63;40.81
6668;BME280;3370;47.712;9.082;2023-03-13T14:30:01;95798.09;;;21.01;40.61
6668;BME280;3370;47.712;9.082;2023-03-13T14:32:49;95791.09;;;20.93;41.97
6668;BME280;3370;47.712;9.082;2023-03-13T14:35:35;95782.25;;;21.11;41.47
6668;BME280;3370;47.712;9.082;2023-03-13T14:38:27;95776.84;;;21.45;41.06
6668;BME280;3370;47.712;9.082;2023-03-13T14:41:39;95781.38;;;21.59;39.00
6668;BME280;3370;47.712;9.082;2023-03-13T14:44:30;95777.25;;;22.05;39.87
6668;BME280;3370;47.712;9.082;2023-03-13T14:47:26;95774.09;;;21.78;38.79
6668;BME280;3370;47.712;9.082;2023-03-13T14:50:16;95761.66;;;21.80;39.73
6668;BME280;3370;47.712;9.082;2023-03-13T14:53:11;95756.75;;;21.77;39.53
6668;BME280;3370;47.712;9.082;2023-03-13T14:56:16;95748.47;;;22.05;38.83
6668;BME280;3370;47.712;9.082;2023-03-13T14:59:23;95730.22;;;21.88;40.27
6668;BME280;3370;47.712;9.082;2023-03-13T15:02:27;95717.97;;;21.49;40.17
6668;BME280;3370;47.712;9.082;2023-03-13T15:05:33;95713.78;;;21.23;41.03
6668;BME280;3370;47.712;9.082;2023-03-13T15:08:23;95712.75;;;20.68;41.21
6668;BME280;3370;47.712;9.082;2023-03-13T15:11:28;95716.66;;;20.73;42.40
6668;BME280;3370;47.712;9.082;2023-03-13T15:14:41;95708.31;;;20.44;40.85
6668;BME280;3370;47.712;9.082;2023-03-13T15:17:28;95698.19;;;20.82;42.50
6668;BME280;3370;47.712;9.082;2023-03-13T15:20:16;95705.34;;;20.23;40.99
6668;BME280;3370;47.712;9.082;2023-03-13T15:23:04;95700.31;;;20.29;41.55
6668;BME280;3370;47.712;9.082;2023-03-13T15:25:51;95705.84;;;20.43;42.24
6668;BME280;3370;47.712;9.082;2023-03-13T15:28:37;95685.47;;;20.05;43.14
6668;BME280;3370;47.712;9.082;2023-03-13T15:31:27;95674.53;;;20.10;41.79
6668;BME280;3370;47.712;9.082;2023-03-13T15:34:14;95672.56;;;20.12;42.37
6668;BME280;3370;47.712;9.082;2023-03-13T15:37:01;95669.75;;;19.81;43.00
6668;BME280;3370;47.712;9.082;2023-03-13T15:39:47;95662.50;;;19.58;43.04
6668;BME280;3370;47.712;9.082;2023-03-13T15:42:33;95653.31;;;19.38;43.86
6668;BME280;3370;47.712;9.082;2023-03-13T15:45:20;95650.69;;;19.38;43.96
6668;BME280;3370;47.712;9.082;2023-03-13T15:51:02;95622.69;;;19.40;44.95
6668;BME280;3370;47.712;9.082;2023-03-13T15:53:48;95619.41;;;19.38;45.72
6668;BME280;3370;47.712;9.082;2023-03-13T15:56:36;95613.50;;;19.11;43.84
6668;BME280;3370;47.712;9.082;2023-03-13T15:59:23;95598.78;;;18.67;44.42
6668;BME280;3370;47.712;9.082;2023-03-13T16:02:20;95597.00;;;18.76;43.20
6668;BME280;3370;47.712;9.082;2023-03-13T16:05:07;95589.22;;;18.50;44.38
6668;BME280;3370;47.712;9.082;2023-03-13T16:07:54;95576.94;;;18.60;45.47
6668;BME280;3370;47.712;9.082;2023-03-13T16:10:41;95575.84;;;19.05;44.93
6668;BME280;3370;47.712;9.082;2023-03-13T16:13:27;95572.91;;;18.74;43.02
6668;BME280;3370;47.712;9.082;2023-03-13T16:19:08;95555.13;;;18.95;43.89
6668;BME280;3370;47.712;9.082;2023-03-13T16:21:55;95546.66;;;18.59;44.12
6668;BME280;3370;47.712;9.082;2023-03-13T16:24:41;95531.22;;;18.31;45.35
6668;BME280;3370;47.712;9.082;2023-03-13T16:27:27;95519.31;;;18.20;44.76
6668;BME280;3370;47.712;9.082;2023-03-13T16:30:22;95515.28;;;18.34;45.96
6668;BME280;3370;47.712;9.082;2023-03-13T16:33:10;95506.81;;;18.24;44.20
6668;BME280;3370;47.712;9.082;2023-03-13T16:35:56;95499.66;;;18.26;44.85
6668;BME280;3370;47.712;9.082;2023-03-13T16:38:42;95492.19;;;17.97;44.28